Charlotte, Tennessee
Current Conditions -  °F | °C
As of 1:52 PM on Wednesday 26 Nov 2014 (Local Time) from KCKV Reporting Station
Few Clouds Few Clouds  
Wind Chill: 41°   Ceiling: Unl
Heat Index: 46°   Visibility: 10mi
Dew Point: 24°   Wind: 10mph
Humidity: 42%   Direction: 150°SSE
Pressure: 30.02"   Gusts: NA
Location:  36.18°N, 87.34°W
Report Text: KCKV 261952Z AUTO 15009KT 10SM FEW095 08/M04 A3002 RMK AO2 SLP167 T00781044
Loading
Personal Weather Stations






























Interactive Weather Map New forecast layout! Learn more

10-Day Weather Forecast

Advertisements
Track Severe Weather on mobile